sensor_id;sensor_type;location;lat;lon;timestamp;P1;durP1;ratioP1;P2;durP2;ratioP2
11123;SDS011;5616;42.692;23.312;2022-09-09T00:00:46;9.17;;;8.20;;
11123;SDS011;5616;42.692;23.312;2022-09-09T00:03:16;9.87;;;8.93;;
11123;SDS011;5616;42.692;23.312;2022-09-09T00:05:48;11.50;;;8.40;;
11123;SDS011;5616;42.692;23.312;2022-09-09T00:08:23;12.90;;;9.23;;
11123;SDS011;5616;42.692;23.312;2022-09-09T00:10:59;10.93;;;9.10;;
11123;SDS011;5616;42.692;23.312;2022-09-09T00:13:31;16.43;;;8.70;;
11123;SDS011;5616;42.692;23.312;2022-09-09T00:16:04;9.97;;;8.80;;
11123;SDS011;5616;42.692;23.312;2022-09-09T00:18:44;11.17;;;8.87;;
11123;SDS011;5616;42.692;23.312;2022-09-09T00:21:18;10.83;;;8.53;;
11123;SDS011;5616;42.692;23.312;2022-09-09T00:23:48;11.40;;;8.83;;
11123;SDS011;5616;42.692;23.312;2022-09-09T00:26:19;11.73;;;8.47;;
11123;SDS011;5616;42.692;23.312;2022-09-09T00:28:52;12.17;;;9.10;;
11123;SDS011;5616;42.692;23.312;2022-09-09T00:31:27;10.70;;;9.60;;
11123;SDS011;5616;42.692;23.312;2022-09-09T00:33:56;12.67;;;9.20;;
11123;SDS011;5616;42.692;23.312;2022-09-09T00:36:29;8.80;;;7.90;;
11123;SDS011;5616;42.692;23.312;2022-09-09T00:39:00;10.37;;;8.50;;
11123;SDS011;5616;42.692;23.312;2022-09-09T00:41:31;10.83;;;8.87;;
11123;SDS011;5616;42.692;23.312;2022-09-09T00:44:14;11.60;;;8.77;;
11123;SDS011;5616;42.692;23.312;2022-09-09T00:46:55;12.67;;;8.87;;
11123;SDS011;5616;42.692;23.312;2022-09-09T00:49:34;9.30;;;8.13;;
11123;SDS011;5616;42.692;23.312;2022-09-09T00:52:12;9.73;;;7.53;;
11123;SDS011;5616;42.692;23.312;2022-09-09T00:54:50;9.70;;;8.80;;
11123;SDS011;5616;42.692;23.312;2022-09-09T00:57:27;12.20;;;9.03;;
11123;SDS011;5616;42.692;23.312;2022-09-09T00:59:57;12.67;;;8.67;;
11123;SDS011;5616;42.692;23.312;2022-09-09T01:02:32;11.77;;;8.97;;
11123;SDS011;5616;42.692;23.312;2022-09-09T01:05:07;12.87;;;9.30;;
11123;SDS011;5616;42.692;23.312;2022-09-09T01:07:40;11.63;;;9.60;;
11123;SDS011;5616;42.692;23.312;2022-09-09T01:10:15;12.27;;;9.40;;
11123;SDS011;5616;42.692;23.312;2022-09-09T01:12:56;12.73;;;9.40;;
11123;SDS011;5616;42.692;23.312;2022-09-09T01:15:29;10.77;;;8.63;;
11123;SDS011;5616;42.692;23.312;2022-09-09T01:18:00;10.97;;;8.83;;
11123;SDS011;5616;42.692;23.312;2022-09-09T01:20:37;12.93;;;8.83;;
11123;SDS011;5616;42.692;23.312;2022-09-09T01:23:21;11.87;;;8.83;;
11123;SDS011;5616;42.692;23.312;2022-09-09T01:26:21;9.47;;;8.47;;
11123;SDS011;5616;42.692;23.312;2022-09-09T01:28:54;9.97;;;8.57;;
11123;SDS011;5616;42.692;23.312;2022-09-09T01:31:30;10.30;;;9.30;;
11123;SDS011;5616;42.692;23.312;2022-09-09T01:34:01;10.60;;;8.77;;
11123;SDS011;5616;42.692;23.312;2022-09-09T01:36:31;11.23;;;8.80;;
11123;SDS011;5616;42.692;23.312;2022-09-09T01:39:05;11.80;;;8.60;;
11123;SDS011;5616;42.692;23.312;2022-09-09T01:41:34;10.17;;;9.17;;
11123;SDS011;5616;42.692;23.312;2022-09-09T01:44:07;9.93;;;8.90;;
11123;SDS011;5616;42.692;23.312;2022-09-09T01:46:36;14.83;;;9.20;;
11123;SDS011;5616;42.692;23.312;2022-09-09T01:49:06;10.30;;;9.30;;
11123;SDS011;5616;42.692;23.312;2022-09-09T01:51:35;13.17;;;9.60;;
11123;SDS011;5616;42.692;23.312;2022-09-09T01:54:07;10.63;;;9.53;;
11123;SDS011;5616;42.692;23.312;2022-09-09T01:56:39;10.87;;;9.30;;
11123;SDS011;5616;42.692;23.312;2022-09-09T01:59:18;12.83;;;9.53;;
11123;SDS011;5616;42.692;23.312;2022-09-09T02:01:58;11.17;;;9.17;;
11123;SDS011;5616;42.692;23.312;2022-09-09T02:04:37;10.53;;;9.43;;
11123;SDS011;5616;42.692;23.312;2022-09-09T02:07:18;11.53;;;9.03;;
11123;SDS011;5616;42.692;23.312;2022-09-09T02:09:56;12.50;;;9.63;;
11123;SDS011;5616;42.692;23.312;2022-09-09T02:12:29;16.47;;;10.00;;
11123;SDS011;5616;42.692;23.312;2022-09-09T02:15:00;11.90;;;10.20;;
11123;SDS011;5616;42.692;23.312;2022-09-09T02:17:41;11.10;;;9.23;;
11123;SDS011;5616;42.692;23.312;2022-09-09T02:20:13;10.77;;;9.70;;
11123;SDS011;5616;42.692;23.312;2022-09-09T02:22:54;11.07;;;8.63;;
11123;SDS011;5616;42.692;23.312;2022-09-09T02:25:24;11.03;;;9.40;;
11123;SDS011;5616;42.692;23.312;2022-09-09T02:27:59;9.90;;;8.80;;
11123;SDS011;5616;42.692;23.312;2022-09-09T02:30:29;10.40;;;9.30;;
11123;SDS011;5616;42.692;23.312;2022-09-09T02:33:00;11.13;;;10.03;;
11123;SDS011;5616;42.692;23.312;2022-09-09T02:35:50;11.17;;;9.57;;
11123;SDS011;5616;42.692;23.312;2022-09-09T02:38:21;11.60;;;9.37;;
11123;SDS011;5616;42.692;23.312;2022-09-09T02:40:59;13.73;;;9.60;;
11123;SDS011;5616;42.692;23.312;2022-09-09T02:43:32;13.47;;;9.43;;
11123;SDS011;5616;42.692;23.312;2022-09-09T02:46:02;11.90;;;9.93;;
11123;SDS011;5616;42.692;23.312;2022-09-09T02:48:35;10.37;;;9.37;;
11123;SDS011;5616;42.692;23.312;2022-09-09T02:51:14;11.03;;;9.50;;
11123;SDS011;5616;42.692;23.312;2022-09-09T02:53:47;12.30;;;9.37;;
11123;SDS011;5616;42.692;23.312;2022-09-09T02:56:22;12.03;;;9.57;;
11123;SDS011;5616;42.692;23.312;2022-09-09T02:58:56;15.70;;;9.40;;
11123;SDS011;5616;42.692;23.312;2022-09-09T03:01:24;12.57;;;10.10;;
11123;SDS011;5616;42.692;23.312;2022-09-09T03:03:51;10.70;;;9.63;;
11123;SDS011;5616;42.692;23.312;2022-09-09T03:06:18;11.37;;;9.90;;
11123;SDS011;5616;42.692;23.312;2022-09-09T03:08:50;12.90;;;10.30;;
11123;SDS011;5616;42.692;23.312;2022-09-09T03:11:22;10.50;;;9.50;;
11123;SDS011;5616;42.692;23.312;2022-09-09T03:13:49;10.43;;;9.37;;
11123;SDS011;5616;42.692;23.312;2022-09-09T03:16:20;12.90;;;10.55;;
11123;SDS011;5616;42.692;23.312;2022-09-09T03:18:49;11.93;;;10.35;;
11123;SDS011;5616;42.692;23.312;2022-09-09T03:21:19;11.20;;;10.07;;
11123;SDS011;5616;42.692;23.312;2022-09-09T03:23:46;11.27;;;10.03;;
11123;SDS011;5616;42.692;23.312;2022-09-09T03:26:14;14.23;;;9.80;;
11123;SDS011;5616;42.692;23.312;2022-09-09T03:28:44;12.43;;;10.27;;
11123;SDS011;5616;42.692;23.312;2022-09-09T03:31:13;14.77;;;10.30;;
11123;SDS011;5616;42.692;23.312;2022-09-09T03:33:43;11.80;;;10.13;;
11123;SDS011;5616;42.692;23.312;2022-09-09T03:36:12;13.17;;;10.27;;
11123;SDS011;5616;42.692;23.312;2022-09-09T03:38:40;14.10;;;9.93;;
11123;SDS011;5616;42.692;23.312;2022-09-09T03:41:07;13.33;;;10.47;;
11123;SDS011;5616;42.692;23.312;2022-09-09T03:43:35;11.93;;;10.17;;
11123;SDS011;5616;42.692;23.312;2022-09-09T03:46:03;13.80;;;10.30;;
11123;SDS011;5616;42.692;23.312;2022-09-09T03:48:30;14.60;;;10.37;;
11123;SDS011;5616;42.692;23.312;2022-09-09T03:50:59;13.23;;;10.23;;
11123;SDS011;5616;42.692;23.312;2022-09-09T03:53:29;15.10;;;10.07;;
11123;SDS011;5616;42.692;23.312;2022-09-09T03:55:57;11.80;;;10.47;;
11123;SDS011;5616;42.692;23.312;2022-09-09T03:58:26;11.70;;;10.47;;
11123;SDS011;5616;42.692;23.312;2022-09-09T04:01:00;11.10;;;9.83;;
11123;SDS011;5616;42.692;23.312;2022-09-09T04:03:28;13.17;;;10.70;;
11123;SDS011;5616;42.692;23.312;2022-09-09T04:05:56;15.67;;;10.60;;
11123;SDS011;5616;42.692;23.312;2022-09-09T04:08:27;14.57;;;10.40;;
11123;SDS011;5616;42.692;23.312;2022-09-09T04:10:55;11.80;;;10.27;;
11123;SDS011;5616;42.692;23.312;2022-09-09T04:13:24;11.23;;;9.87;;
11123;SDS011;5616;42.692;23.312;2022-09-09T04:15:52;11.17;;;10.03;;
11123;SDS011;5616;42.692;23.312;2022-09-09T04:18:20;14.53;;;10.30;;
11123;SDS011;5616;42.692;23.312;2022-09-09T04:20:49;13.00;;;11.63;;
11123;SDS011;5616;42.692;23.312;2022-09-09T04:23:19;11.10;;;9.97;;
11123;SDS011;5616;42.692;23.312;2022-09-09T04:25:48;11.88;;;10.68;;
11123;SDS011;5616;42.692;23.312;2022-09-09T04:28:18;16.13;;;10.97;;
11123;SDS011;5616;42.692;23.312;2022-09-09T04:30:46;12.27;;;10.57;;
11123;SDS011;5616;42.692;23.312;2022-09-09T04:33:13;16.00;;;10.93;;
11123;SDS011;5616;42.692;23.312;2022-09-09T04:35:43;13.90;;;10.63;;
11123;SDS011;5616;42.692;23.312;2022-09-09T04:38:13;13.20;;;9.63;;
11123;SDS011;5616;42.692;23.312;2022-09-09T04:40:42;14.70;;;10.73;;
11123;SDS011;5616;42.692;23.312;2022-09-09T04:43:11;12.90;;;10.10;;
11123;SDS011;5616;42.692;23.312;2022-09-09T04:45:39;16.27;;;11.23;;
11123;SDS011;5616;42.692;23.312;2022-09-09T04:48:06;20.20;;;10.77;;
11123;SDS011;5616;42.692;23.312;2022-09-09T04:50:35;15.27;;;11.17;;
11123;SDS011;5616;42.692;23.312;2022-09-09T04:53:02;12.87;;;10.90;;
11123;SDS011;5616;42.692;23.312;2022-09-09T04:55:30;14.87;;;11.03;;
11123;SDS011;5616;42.692;23.312;2022-09-09T04:57:57;12.37;;;10.90;;
11123;SDS011;5616;42.692;23.312;2022-09-09T05:00:30;15.53;;;11.87;;
11123;SDS011;5616;42.692;23.312;2022-09-09T05:02:57;14.83;;;10.07;;
11123;SDS011;5616;42.692;23.312;2022-09-09T05:05:24;14.63;;;11.57;;
11123;SDS011;5616;42.692;23.312;2022-09-09T05:07:52;18.37;;;11.07;;
11123;SDS011;5616;42.692;23.312;2022-09-09T05:10:19;10.70;;;9.70;;
11123;SDS011;5616;42.692;23.312;2022-09-09T05:12:51;21.40;;;14.03;;
11123;SDS011;5616;42.692;23.312;2022-09-09T05:15:21;14.77;;;11.70;;
11123;SDS011;5616;42.692;23.312;2022-09-09T05:17:49;16.07;;;10.53;;
11123;SDS011;5616;42.692;23.312;2022-09-09T05:20:19;13.13;;;10.77;;
11123;SDS011;5616;42.692;23.312;2022-09-09T05:22:47;12.67;;;10.80;;
11123;SDS011;5616;42.692;23.312;2022-09-09T05:25:14;27.17;;;16.63;;
11123;SDS011;5616;42.692;23.312;2022-09-09T05:27:41;17.87;;;12.90;;
11123;SDS011;5616;42.692;23.312;2022-09-09T05:30:09;13.40;;;11.97;;
11123;SDS011;5616;42.692;23.312;2022-09-09T05:32:36;15.93;;;12.23;;
11123;SDS011;5616;42.692;23.312;2022-09-09T05:35:05;13.13;;;11.73;;
11123;SDS011;5616;42.692;23.312;2022-09-09T05:37:32;21.97;;;16.10;;
11123;SDS011;5616;42.692;23.312;2022-09-09T05:40:00;14.37;;;11.57;;
11123;SDS011;5616;42.692;23.312;2022-09-09T05:42:29;12.50;;;11.30;;
11123;SDS011;5616;42.692;23.312;2022-09-09T05:44:57;14.93;;;11.50;;
11123;SDS011;5616;42.692;23.312;2022-09-09T05:47:24;11.77;;;10.20;;
11123;SDS011;5616;42.692;23.312;2022-09-09T05:49:53;14.80;;;10.77;;
11123;SDS011;5616;42.692;23.312;2022-09-09T05:52:22;13.87;;;11.03;;
11123;SDS011;5616;42.692;23.312;2022-09-09T05:54:51;15.83;;;10.93;;
11123;SDS011;5616;42.692;23.312;2022-09-09T05:57:19;12.70;;;10.30;;
11123;SDS011;5616;42.692;23.312;2022-09-09T05:59:46;15.10;;;11.33;;
11123;SDS011;5616;42.692;23.312;2022-09-09T06:02:13;16.87;;;12.03;;
11123;SDS011;5616;42.692;23.312;2022-09-09T06:04:40;14.57;;;10.77;;
11123;SDS011;5616;42.692;23.312;2022-09-09T06:07:07;11.93;;;10.47;;
11123;SDS011;5616;42.692;23.312;2022-09-09T06:09:35;12.77;;;9.87;;
11123;SDS011;5616;42.692;23.312;2022-09-09T06:12:02;14.40;;;11.00;;
11123;SDS011;5616;42.692;23.312;2022-09-09T06:14:33;17.70;;;11.67;;
11123;SDS011;5616;42.692;23.312;2022-09-09T06:17:01;14.03;;;11.07;;
11123;SDS011;5616;42.692;23.312;2022-09-09T06:19:29;13.40;;;11.10;;
11123;SDS011;5616;42.692;23.312;2022-09-09T06:21:57;15.00;;;12.40;;
11123;SDS011;5616;42.692;23.312;2022-09-09T06:24:26;18.37;;;12.47;;
11123;SDS011;5616;42.692;23.312;2022-09-09T06:26:57;16.50;;;11.87;;
11123;SDS011;5616;42.692;23.312;2022-09-09T06:29:27;14.33;;;11.63;;
11123;SDS011;5616;42.692;23.312;2022-09-09T06:31:54;17.57;;;11.87;;
11123;SDS011;5616;42.692;23.312;2022-09-09T06:34:24;15.20;;;10.90;;
11123;SDS011;5616;42.692;23.312;2022-09-09T06:36:54;11.33;;;9.40;;
11123;SDS011;5616;42.692;23.312;2022-09-09T06:39:23;11.57;;;9.23;;
11123;SDS011;5616;42.692;23.312;2022-09-09T06:41:51;15.53;;;9.80;;
11123;SDS011;5616;42.692;23.312;2022-09-09T06:44:43;15.70;;;8.83;;
11123;SDS011;5616;42.692;23.312;2022-09-09T06:47:16;13.60;;;8.40;;
11123;SDS011;5616;42.692;23.312;2022-09-09T06:49:43;12.87;;;8.90;;
11123;SDS011;5616;42.692;23.312;2022-09-09T06:52:10;16.83;;;8.27;;
11123;SDS011;5616;42.692;23.312;2022-09-09T06:54:37;12.30;;;8.00;;
11123;SDS011;5616;42.692;23.312;2022-09-09T06:57:05;9.50;;;7.63;;
11123;SDS011;5616;42.692;23.312;2022-09-09T06:59:33;8.47;;;6.80;;
11123;SDS011;5616;42.692;23.312;2022-09-09T07:02:03;14.17;;;8.10;;
11123;SDS011;5616;42.692;23.312;2022-09-09T07:04:30;10.20;;;7.30;;
11123;SDS011;5616;42.692;23.312;2022-09-09T07:06:57;12.50;;;7.23;;
11123;SDS011;5616;42.692;23.312;2022-09-09T07:09:25;9.53;;;6.50;;
11123;SDS011;5616;42.692;23.312;2022-09-09T07:11:53;8.83;;;6.10;;
11123;SDS011;5616;42.692;23.312;2022-09-09T07:14:22;10.83;;;6.37;;
11123;SDS011;5616;42.692;23.312;2022-09-09T07:16:56;7.47;;;5.87;;
11123;SDS011;5616;42.692;23.312;2022-09-09T07:19:25;9.33;;;6.30;;
11123;SDS011;5616;42.692;23.312;2022-09-09T07:21:53;11.10;;;6.40;;
11123;SDS011;5616;42.692;23.312;2022-09-09T07:24:22;6.77;;;5.50;;
11123;SDS011;5616;42.692;23.312;2022-09-09T07:26:49;6.20;;;5.60;;
11123;SDS011;5616;42.692;23.312;2022-09-09T07:29:17;7.27;;;6.13;;
11123;SDS011;5616;42.692;23.312;2022-09-09T07:31:44;11.70;;;6.00;;
11123;SDS011;5616;42.692;23.312;2022-09-09T07:34:15;6.20;;;5.60;;
11123;SDS011;5616;42.692;23.312;2022-09-09T07:36:45;6.90;;;5.53;;
11123;SDS011;5616;42.692;23.312;2022-09-09T07:39:13;5.80;;;5.20;;
11123;SDS011;5616;42.692;23.312;2022-09-09T07:41:45;8.68;;;5.30;;
11123;SDS011;5616;42.692;23.312;2022-09-09T07:44:16;7.47;;;5.37;;
11123;SDS011;5616;42.692;23.312;2022-09-09T07:46:48;7.72;;;5.35;;
11123;SDS011;5616;42.692;23.312;2022-09-09T07:49:19;9.63;;;5.10;;
11123;SDS011;5616;42.692;23.312;2022-09-09T07:51:48;6.13;;;5.20;;
11123;SDS011;5616;42.692;23.312;2022-09-09T07:54:18;8.52;;;5.00;;
11123;SDS011;5616;42.692;23.312;2022-09-09T07:56:49;8.13;;;5.43;;
11123;SDS011;5616;42.692;23.312;2022-09-09T07:59:17;6.40;;;5.40;;
11123;SDS011;5616;42.692;23.312;2022-09-09T08:01:48;8.13;;;5.00;;
11123;SDS011;5616;42.692;23.312;2022-09-09T08:04:21;6.75;;;5.22;;
11123;SDS011;5616;42.692;23.312;2022-09-09T08:06:52;5.35;;;4.85;;
11123;SDS011;5616;42.692;23.312;2022-09-09T08:09:22;9.40;;;5.55;;
11123;SDS011;5616;42.692;23.312;2022-09-09T08:11:51;6.07;;;5.03;;
11123;SDS011;5616;42.692;23.312;2022-09-09T08:14:18;7.28;;;5.40;;
11123;SDS011;5616;42.692;23.312;2022-09-09T08:16:46;5.78;;;4.78;;
11123;SDS011;5616;42.692;23.312;2022-09-09T08:19:17;7.50;;;5.10;;
11123;SDS011;5616;42.692;23.312;2022-09-09T08:21:45;7.03;;;5.30;;
11123;SDS011;5616;42.692;23.312;2022-09-09T08:24:15;7.80;;;4.65;;
11123;SDS011;5616;42.692;23.312;2022-09-09T08:26:47;6.15;;;5.10;;
11123;SDS011;5616;42.692;23.312;2022-09-09T08:29:17;8.18;;;5.18;;
11123;SDS011;5616;42.692;23.312;2022-09-09T08:31:46;6.43;;;4.97;;
11123;SDS011;5616;42.692;23.312;2022-09-09T08:34:14;7.65;;;5.22;;
11123;SDS011;5616;42.692;23.312;2022-09-09T08:36:43;8.57;;;5.00;;
11123;SDS011;5616;42.692;23.312;2022-09-09T08:39:12;10.88;;;5.50;;
11123;SDS011;5616;42.692;23.312;2022-09-09T08:41:56;8.50;;;5.90;;
11123;SDS011;5616;42.692;23.312;2022-09-09T08:44:56;12.57;;;5.25;;
11123;SDS011;5616;42.692;23.312;2022-09-09T08:47:43;7.10;;;4.88;;
11123;SDS011;5616;42.692;23.312;2022-09-09T08:50:22;12.35;;;7.68;;
11123;SDS011;5616;42.692;23.312;2022-09-09T08:53:00;11.60;;;6.07;;
11123;SDS011;5616;42.692;23.312;2022-09-09T08:55:35;6.35;;;5.30;;
11123;SDS011;5616;42.692;23.312;2022-09-09T08:58:11;10.20;;;4.88;;
11123;SDS011;5616;42.692;23.312;2022-09-09T09:00:44;12.38;;;5.95;;
11123;SDS011;5616;42.692;23.312;2022-09-09T09:03:27;10.57;;;5.95;;
11123;SDS011;5616;42.692;23.312;2022-09-09T09:06:04;8.27;;;5.85;;
11123;SDS011;5616;42.692;23.312;2022-09-09T09:08:43;5.72;;;4.70;;
11123;SDS011;5616;42.692;23.312;2022-09-09T09:11:16;9.18;;;5.43;;
11123;SDS011;5616;42.692;23.312;2022-09-09T09:13:47;5.20;;;4.60;;
11123;SDS011;5616;42.692;23.312;2022-09-09T09:16:22;7.80;;;5.45;;
11123;SDS011;5616;42.692;23.312;2022-09-09T09:18:53;11.75;;;6.20;;
11123;SDS011;5616;42.692;23.312;2022-09-09T09:21:25;8.65;;;5.80;;
11123;SDS011;5616;42.692;23.312;2022-09-09T09:24:01;9.45;;;4.82;;
11123;SDS011;5616;42.692;23.312;2022-09-09T09:26:33;19.50;;;9.30;;
11123;SDS011;5616;42.692;23.312;2022-09-09T09:29:08;11.98;;;8.63;;
11123;SDS011;5616;42.692;23.312;2022-09-09T09:31:41;14.70;;;8.43;;
11123;SDS011;5616;42.692;23.312;2022-09-09T09:34:10;8.90;;;6.03;;
11123;SDS011;5616;42.692;23.312;2022-09-09T09:36:40;10.52;;;5.60;;
11123;SDS011;5616;42.692;23.312;2022-09-09T09:39:21;9.05;;;4.95;;
11123;SDS011;5616;42.692;23.312;2022-09-09T09:41:49;7.70;;;5.45;;
11123;SDS011;5616;42.692;23.312;2022-09-09T09:44:23;7.88;;;4.70;;
11123;SDS011;5616;42.692;23.312;2022-09-09T09:46:53;9.98;;;5.25;;
11123;SDS011;5616;42.692;23.312;2022-09-09T09:49:32;7.05;;;5.15;;
11123;SDS011;5616;42.692;23.312;2022-09-09T09:52:00;9.02;;;4.78;;
11123;SDS011;5616;42.692;23.312;2022-09-09T09:54:29;7.80;;;4.40;;
11123;SDS011;5616;42.692;23.312;2022-09-09T09:57:08;6.10;;;4.80;;
11123;SDS011;5616;42.692;23.312;2022-09-09T09:59:40;8.65;;;5.85;;
11123;SDS011;5616;42.692;23.312;2022-09-09T10:02:22;6.32;;;4.95;;
11123;SDS011;5616;42.692;23.312;2022-09-09T10:05:04;8.80;;;5.30;;
11123;SDS011;5616;42.692;23.312;2022-09-09T10:07:40;6.03;;;5.28;;
11123;SDS011;5616;42.692;23.312;2022-09-09T10:10:09;6.47;;;5.20;;
11123;SDS011;5616;42.692;23.312;2022-09-09T10:12:44;10.15;;;5.63;;
11123;SDS011;5616;42.692;23.312;2022-09-09T10:15:27;9.55;;;5.65;;
11123;SDS011;5616;42.692;23.312;2022-09-09T10:18:04;5.63;;;4.97;;
11123;SDS011;5616;42.692;23.312;2022-09-09T10:20:43;6.38;;;5.22;;
11123;SDS011;5616;42.692;23.312;2022-09-09T10:23:23;9.68;;;4.90;;
11123;SDS011;5616;42.692;23.312;2022-09-09T10:26:03;8.43;;;5.72;;
11123;SDS011;5616;42.692;23.312;2022-09-09T10:28:58;8.20;;;5.72;;
11123;SDS011;5616;42.692;23.312;2022-09-09T10:31:40;8.63;;;5.85;;
11123;SDS011;5616;42.692;23.312;2022-09-09T10:34:19;8.07;;;5.80;;
11123;SDS011;5616;42.692;23.312;2022-09-09T10:37:01;7.97;;;5.80;;
11123;SDS011;5616;42.692;23.312;2022-09-09T10:39:44;9.20;;;6.03;;
11123;SDS011;5616;42.692;23.312;2022-09-09T10:42:12;8.45;;;5.72;;
11123;SDS011;5616;42.692;23.312;2022-09-09T10:44:53;10.75;;;6.85;;
11123;SDS011;5616;42.692;23.312;2022-09-09T10:47:46;10.57;;;6.30;;
11123;SDS011;5616;42.692;23.312;2022-09-09T10:50:31;9.23;;;6.15;;
11123;SDS011;5616;42.692;23.312;2022-09-09T10:53:08;14.60;;;6.35;;
11123;SDS011;5616;42.692;23.312;2022-09-09T10:55:43;10.25;;;6.05;;
11123;SDS011;5616;42.692;23.312;2022-09-09T10:58:17;9.48;;;5.78;;
11123;SDS011;5616;42.692;23.312;2022-09-09T11:00:50;10.50;;;6.80;;
11123;SDS011;5616;42.692;23.312;2022-09-09T11:03:24;9.38;;;6.13;;
11123;SDS011;5616;42.692;23.312;2022-09-09T11:05:56;9.43;;;6.90;;
11123;SDS011;5616;42.692;23.312;2022-09-09T11:08:28;11.65;;;6.30;;
11123;SDS011;5616;42.692;23.312;2022-09-09T11:10:58;10.35;;;6.05;;
11123;SDS011;5616;42.692;23.312;2022-09-09T11:13:30;12.60;;;7.15;;
11123;SDS011;5616;42.692;23.312;2022-09-09T11:16:04;12.70;;;6.53;;
11123;SDS011;5616;42.692;23.312;2022-09-09T11:18:43;14.43;;;6.47;;
11123;SDS011;5616;42.692;23.312;2022-09-09T11:21:15;9.07;;;6.38;;
11123;SDS011;5616;42.692;23.312;2022-09-09T11:23:48;8.30;;;6.72;;
11123;SDS011;5616;42.692;23.312;2022-09-09T11:26:21;9.27;;;6.45;;
11123;SDS011;5616;42.692;23.312;2022-09-09T11:28:58;10.00;;;5.70;;
11123;SDS011;5616;42.692;23.312;2022-09-09T11:31:43;16.38;;;7.10;;
11123;SDS011;5616;42.692;23.312;2022-09-09T11:34:23;12.48;;;7.00;;
11123;SDS011;5616;42.692;23.312;2022-09-09T11:37:06;12.43;;;6.90;;
11123;SDS011;5616;42.692;23.312;2022-09-09T11:39:55;9.68;;;6.70;;
11123;SDS011;5616;42.692;23.312;2022-09-09T11:42:34;9.93;;;6.97;;
11123;SDS011;5616;42.692;23.312;2022-09-09T11:45:08;8.65;;;6.35;;
11123;SDS011;5616;42.692;23.312;2022-09-09T11:47:38;9.27;;;6.18;;
11123;SDS011;5616;42.692;23.312;2022-09-09T11:50:10;7.97;;;6.35;;
11123;SDS011;5616;42.692;23.312;2022-09-09T11:53:03;13.55;;;6.50;;
11123;SDS011;5616;42.692;23.312;2022-09-09T11:55:48;13.30;;;7.20;;
11123;SDS011;5616;42.692;23.312;2022-09-09T11:58:26;8.75;;;5.97;;
11123;SDS011;5616;42.692;23.312;2022-09-09T12:00:57;11.82;;;6.03;;
11123;SDS011;5616;42.692;23.312;2022-09-09T12:03:39;9.85;;;6.70;;
11123;SDS011;5616;42.692;23.312;2022-09-09T12:06:12;11.60;;;6.53;;
11123;SDS011;5616;42.692;23.312;2022-09-09T12:08:44;9.85;;;5.85;;
11123;SDS011;5616;42.692;23.312;2022-09-09T12:11:23;12.30;;;6.13;;
11123;SDS011;5616;42.692;23.312;2022-09-09T12:13:52;19.85;;;9.68;;
11123;SDS011;5616;42.692;23.312;2022-09-09T12:16:27;9.82;;;6.65;;
11123;SDS011;5616;42.692;23.312;2022-09-09T12:19:05;9.57;;;6.63;;
11123;SDS011;5616;42.692;23.312;2022-09-09T12:21:43;9.02;;;6.35;;
11123;SDS011;5616;42.692;23.312;2022-09-09T12:24:19;8.23;;;6.45;;
11123;SDS011;5616;42.692;23.312;2022-09-09T12:26:57;12.25;;;6.53;;
11123;SDS011;5616;42.692;23.312;2022-09-09T12:29:28;8.45;;;5.78;;
11123;SDS011;5616;42.692;23.312;2022-09-09T12:32:05;12.23;;;6.38;;
11123;SDS011;5616;42.692;23.312;2022-09-09T12:34:40;8.98;;;6.43;;
11123;SDS011;5616;42.692;23.312;2022-09-09T12:37:15;13.30;;;6.82;;
11123;SDS011;5616;42.692;23.312;2022-09-09T12:39:49;11.35;;;7.10;;
11123;SDS011;5616;42.692;23.312;2022-09-09T12:42:20;12.25;;;7.03;;
11123;SDS011;5616;42.692;23.312;2022-09-09T12:44:52;11.55;;;6.70;;
11123;SDS011;5616;42.692;23.312;2022-09-09T12:47:20;12.60;;;7.43;;
11123;SDS011;5616;42.692;23.312;2022-09-09T12:49:50;12.45;;;7.15;;
11123;SDS011;5616;42.692;23.312;2022-09-09T12:52:20;9.05;;;6.60;;
11123;SDS011;5616;42.692;23.312;2022-09-09T12:54:51;11.57;;;6.60;;
11123;SDS011;5616;42.692;23.312;2022-09-09T12:57:20;8.52;;;6.40;;
11123;SDS011;5616;42.692;23.312;2022-09-09T12:59:51;10.93;;;7.05;;
11123;SDS011;5616;42.692;23.312;2022-09-09T13:02:20;12.05;;;6.75;;
11123;SDS011;5616;42.692;23.312;2022-09-09T13:04:48;13.57;;;6.97;;
11123;SDS011;5616;42.692;23.312;2022-09-09T13:07:16;10.02;;;6.53;;
11123;SDS011;5616;42.692;23.312;2022-09-09T13:09:45;8.18;;;5.72;;
11123;SDS011;5616;42.692;23.312;2022-09-09T13:12:13;9.45;;;5.00;;
11123;SDS011;5616;42.692;23.312;2022-09-09T13:14:43;8.90;;;4.80;;
11123;SDS011;5616;42.692;23.312;2022-09-09T13:17:17;8.23;;;4.65;;
11123;SDS011;5616;42.692;23.312;2022-09-09T13:19:46;7.30;;;4.60;;
11123;SDS011;5616;42.692;23.312;2022-09-09T13:22:20;6.60;;;4.35;;
11123;SDS011;5616;42.692;23.312;2022-09-09T13:24:57;8.43;;;4.95;;
11123;SDS011;5616;42.692;23.312;2022-09-09T13:27:28;9.98;;;4.93;;
11123;SDS011;5616;42.692;23.312;2022-09-09T13:29:56;10.20;;;4.93;;
11123;SDS011;5616;42.692;23.312;2022-09-09T13:32:23;6.38;;;4.80;;
11123;SDS011;5616;42.692;23.312;2022-09-09T13:34:52;7.32;;;4.90;;
11123;SDS011;5616;42.692;23.312;2022-09-09T13:37:21;9.45;;;5.55;;
11123;SDS011;5616;42.692;23.312;2022-09-09T13:39:54;7.72;;;5.40;;
11123;SDS011;5616;42.692;23.312;2022-09-09T13:42:22;8.20;;;4.78;;
11123;SDS011;5616;42.692;23.312;2022-09-09T13:44:51;7.25;;;4.85;;
11123;SDS011;5616;42.692;23.312;2022-09-09T13:47:20;11.23;;;5.38;;
11123;SDS011;5616;42.692;23.312;2022-09-09T13:49:52;11.77;;;4.70;;
11123;SDS011;5616;42.692;23.312;2022-09-09T13:52:19;10.45;;;5.90;;
11123;SDS011;5616;42.692;23.312;2022-09-09T13:54:47;14.23;;;5.72;;
11123;SDS011;5616;42.692;23.312;2022-09-09T13:57:18;8.77;;;4.00;;
11123;SDS011;5616;42.692;23.312;2022-09-09T13:59:46;11.50;;;4.05;;
11123;SDS011;5616;42.692;23.312;2022-09-09T14:02:13;13.70;;;4.70;;
11123;SDS011;5616;42.692;23.312;2022-09-09T14:04:41;13.05;;;4.63;;
11123;SDS011;5616;42.692;23.312;2022-09-09T14:07:09;11.45;;;5.15;;
11123;SDS011;5616;42.692;23.312;2022-09-09T14:09:38;12.00;;;5.60;;
11123;SDS011;5616;42.692;23.312;2022-09-09T14:12:08;9.43;;;4.40;;
11123;SDS011;5616;42.692;23.312;2022-09-09T14:14:36;10.95;;;5.05;;
11123;SDS011;5616;42.692;23.312;2022-09-09T14:17:03;9.70;;;4.97;;
11123;SDS011;5616;42.692;23.312;2022-09-09T14:19:31;7.13;;;5.28;;
11123;SDS011;5616;42.692;23.312;2022-09-09T14:21:58;10.77;;;5.85;;
11123;SDS011;5616;42.692;23.312;2022-09-09T14:24:25;8.95;;;6.72;;
11123;SDS011;5616;42.692;23.312;2022-09-09T14:26:52;11.30;;;5.95;;
11123;SDS011;5616;42.692;23.312;2022-09-09T14:29:19;9.30;;;6.93;;
11123;SDS011;5616;42.692;23.312;2022-09-09T14:31:48;8.43;;;6.03;;
11123;SDS011;5616;42.692;23.312;2022-09-09T14:34:14;13.95;;;6.78;;
11123;SDS011;5616;42.692;23.312;2022-09-09T14:36:41;10.95;;;6.10;;
11123;SDS011;5616;42.692;23.312;2022-09-09T14:39:09;11.88;;;6.75;;
11123;SDS011;5616;42.692;23.312;2022-09-09T14:41:36;11.45;;;6.45;;
11123;SDS011;5616;42.692;23.312;2022-09-09T14:44:04;13.30;;;6.53;;
11123;SDS011;5616;42.692;23.312;2022-09-09T14:46:30;11.25;;;6.00;;
11123;SDS011;5616;42.692;23.312;2022-09-09T14:49:00;9.07;;;6.10;;
11123;SDS011;5616;42.692;23.312;2022-09-09T14:51:26;10.27;;;5.65;;
11123;SDS011;5616;42.692;23.312;2022-09-09T14:53:54;8.13;;;6.00;;
11123;SDS011;5616;42.692;23.312;2022-09-09T14:56:23;10.75;;;6.50;;
11123;SDS011;5616;42.692;23.312;2022-09-09T14:58:52;13.50;;;6.53;;
11123;SDS011;5616;42.692;23.312;2022-09-09T15:01:20;11.80;;;6.88;;
11123;SDS011;5616;42.692;23.312;2022-09-09T15:03:49;9.73;;;5.72;;